Time;durP1;ratioP1;P1;durP2;ratioP2;P2;SDS_P1;SDS_P2;PMS_P1;PMS_P2;Temp;Humidity;BMP_temperature;BMP_pressure;BME280_temperature;BME280_humidity;BME280_pressure;Samples;Min_cycle;Max_cycle;Signal;HPM_P1;HPM_P2
2021/12/27 00:01:23;;;;;;;35.80;16.20;;;;;;;-7.88;73.04;99708.82;24515;1360;3026892;-70
2021/12/27 00:03:53;;;;;;;35.10;15.70;;;;;;;-7.83;72.84;99709.59;24550;1358;3025492;-70
2021/12/27 00:06:22;;;;;;;40.30;18.30;;;;;;;-7.75;73.01;99713.29;24503;1356;3046758;-70
2021/12/27 00:09:10;;;;;;;34.10;15.60;;;;;;;-7.44;72.50;99719.09;24502;1356;3051398;-69
2021/12/27 00:11:59;;;;;;;41.90;17.10;;;;;;;-7.20;71.82;99719.77;24528;1355;3051017;-69
2021/12/27 00:14:28;;;;;;;34.20;13.40;;;;;;;-7.25;71.95;99721.92;24527;1355;3027254;-70
2021/12/27 00:16:57;;;;;;;22.70;10.20;;;;;;;-7.00;71.96;99721.12;24497;1358;3053234;-68
2021/12/27 00:19:47;;;;;;;36.90;14.30;;;;;;;-6.78;70.33;99719.87;24464;1361;3051715;-68
2021/12/27 00:22:16;;;;;;;35.60;16.30;;;;;;;-6.89;70.14;99720.75;24489;1359;3024636;-68
2021/12/27 00:24:47;;;;;;;27.00;13.70;;;;;;;-6.90;70.46;99716.48;24536;1358;3025309;-68
2021/12/27 00:27:16;;;;;;;23.10;10.40;;;;;;;-6.67;70.33;99707.77;24508;1358;3024955;-70
2021/12/27 00:29:45;;;;;;;34.00;11.50;;;;;;;-6.45;69.42;99705.30;24548;1357;3026969;-69
2021/12/27 00:32:15;;;;;;;24.20;9.90;;;;;;;-6.30;69.35;99699.17;24520;1359;3030990;-70
2021/12/27 00:34:44;;;;;;;34.80;12.70;;;;;;;-6.14;68.35;99698.33;24517;1358;3056008;-69
2021/12/27 00:37:13;;;;;;;24.40;10.70;;;;;;;-5.98;68.01;99701.87;24525;1359;3027009;-70
2021/12/27 00:39:42;;;;;;;19.70;7.30;;;;;;;-5.89;67.61;99704.00;24508;1355;3047901;-69
2021/12/27 00:42:11;;;;;;;25.30;10.20;;;;;;;-5.77;67.02;99711.63;24561;1356;3025793;-68
2021/12/27 00:44:40;;;;;;;26.70;10.80;;;;;;;-5.72;67.19;99711.16;24533;1358;3054717;-70
2021/12/27 00:47:09;;;;;;;48.50;15.80;;;;;;;-5.67;67.10;99707.29;24502;1352;3026373;-68
2021/12/27 00:49:38;;;;;;;27.90;10.60;;;;;;;-5.62;66.89;99707.31;24545;1358;3050784;-70
2021/12/27 00:52:06;;;;;;;29.30;11.70;;;;;;;-5.60;67.12;99709.39;24524;1359;3025008;-68
2021/12/27 00:54:35;;;;;;;25.60;10.60;;;;;;;-5.58;67.07;99714.70;24492;1360;3055676;-70
2021/12/27 00:57:04;;;;;;;28.90;11.70;;;;;;;-5.57;66.82;99713.85;24547;1352;3026289;-68
2021/12/27 00:59:34;;;;;;;33.30;11.30;;;;;;;-5.53;67.00;99715.09;24485;1360;3048261;-69
2021/12/27 01:02:03;;;;;;;42.50;14.90;;;;;;;-5.45;66.64;99710.36;24509;1359;3026280;-70
2021/12/27 01:04:31;;;;;;;31.60;12.30;;;;;;;-5.46;66.90;99716.52;24514;1358;3068014;-70
2021/12/27 01:07:00;;;;;;;48.80;16.80;;;;;;;-5.48;67.11;99720.77;24513;1359;3026553;-69
2021/12/27 01:09:47;;;;;;;41.70;14.50;;;;;;;-5.46;67.28;99720.10;24486;1355;3053941;-68
2021/12/27 01:12:47;;;;;;;42.40;14.60;;;;;;;-5.39;66.94;99713.32;24534;1359;3069848;-68
2021/12/27 01:17:48;;;;;;;61.50;19.90;;;;;;;-5.37;66.47;99712.83;24496;1355;3028885;-69
2021/12/27 01:20:20;;;;;;;47.60;15.40;;;;;;;-5.44;67.02;99717.38;24536;1358;3026518;-69
2021/12/27 01:22:51;;;;;;;40.50;17.60;;;;;;;-5.55;67.44;99719.16;24537;1359;3026680;-68
2021/12/27 01:25:20;;;;;;;61.20;18.70;;;;;;;-5.59;67.39;99719.48;24539;1359;3029560;-71
2021/12/27 01:27:51;;;;;;;67.10;21.20;;;;;;;-5.58;67.83;99721.19;24526;1353;3025103;-69
2021/12/27 01:30:21;;;;;;;51.90;16.40;;;;;;;-5.57;67.79;99728.19;24546;1358;3027492;-70
2021/12/27 01:32:55;;;;;;;54.00;17.40;;;;;;;-5.49;67.46;99731.85;24487;1358;3026709;-68
2021/12/27 01:35:24;;;;;;;46.60;16.50;;;;;;;-5.38;67.56;99739.79;24523;1349;3027476;-71
2021/12/27 01:37:54;;;;;;;60.30;19.30;;;;;;;-5.32;66.72;99741.73;24534;1359;3026481;-69
2021/12/27 01:40:25;;;;;;;68.70;22.20;;;;;;;-5.32;67.43;99743.59;24522;1359;3070786;-69
2021/12/27 01:43:05;;;;;;;74.80;22.90;;;;;;;-5.26;67.03;99743.98;24495;1356;3026507;-71
2021/12/27 01:45:36;;;;;;;67.00;21.50;;;;;;;-5.31;67.06;99745.48;24531;1346;3052553;-72
2021/12/27 01:48:07;;;;;;;59.30;19.20;;;;;;;-5.35;67.58;99742.89;24544;1358;3026051;-70
2021/12/27 01:50:40;;;;;;;59.70;19.40;;;;;;;-5.36;67.53;99739.47;24514;1356;3026043;-70
2021/12/27 01:53:10;;;;;;;70.00;21.60;;;;;;;-5.29;67.46;99744.14;24556;1356;3052664;-69
2021/12/27 01:55:39;;;;;;;77.30;22.20;;;;;;;-5.24;67.33;99741.27;24525;1355;3027500;-71
2021/12/27 01:58:22;;;;;;;83.00;24.30;;;;;;;-5.21;66.83;99739.26;24500;1355;3055676;-70
2021/12/27 02:00:53;;;;;;;74.90;21.50;;;;;;;-5.18;66.47;99741.83;24487;1357;3027276;-70
2021/12/27 02:03:26;;;;;;;59.50;20.10;;;;;;;-5.17;66.55;99744.91;24511;1359;3027088;-70
2021/12/27 02:05:58;;;;;;;50.20;18.50;;;;;;;-5.19;67.07;99743.88;24515;1361;3054856;-70
2021/12/27 02:08:28;;;;;;;65.20;20.60;;;;;;;-5.23;66.89;99741.63;24502;1357;3026075;-70
2021/12/27 02:10:56;;;;;;;71.80;22.60;;;;;;;-5.23;67.24;99742.81;24499;1356;3026172;-72
2021/12/27 02:13:30;;;;;;;86.20;26.60;;;;;;;-5.25;66.99;99734.77;24519;1356;3051043;-69
2021/12/27 02:15:59;;;;;;;80.60;23.80;;;;;;;-5.23;67.29;99734.63;24526;1355;3027390;-70
2021/12/27 02:18:28;;;;;;;67.90;19.80;;;;;;;-5.22;67.00;99738.21;24491;1359;3048886;-68
2021/12/27 02:20:57;;;;;;;81.00;24.90;;;;;;;-5.17;66.94;99740.64;24525;1352;3026018;-70
2021/12/27 02:23:26;;;;;;;85.00;23.90;;;;;;;-5.20;67.10;99745.40;24539;1358;3070497;-71
2021/12/27 02:25:55;;;;;;;68.20;21.60;;;;;;;-5.20;66.93;99746.77;24516;1352;3027276;-67
2021/12/27 02:28:24;;;;;;;60.40;20.20;;;;;;;-5.16;67.04;99748.85;24527;1349;3050123;-69
2021/12/27 02:30:54;;;;;;;57.90;19.30;;;;;;;-5.16;67.26;99748.49;24279;1355;3025942;-68
2021/12/27 02:33:23;;;;;;;54.80;18.60;;;;;;;-5.23;67.22;99753.22;24509;1355;3051327;-69
2021/12/27 02:35:54;;;;;;;53.10;18.60;;;;;;;-5.34;67.67;99755.71;24502;1358;3026658;-69
2021/12/27 02:38:27;;;;;;;50.20;17.00;;;;;;;-5.31;67.94;99758.11;24525;1358;3026649;-70
2021/12/27 02:40:56;;;;;;;48.30;15.00;;;;;;;-5.28;67.85;99763.10;24498;1357;3025990;-67
2021/12/27 02:43:27;;;;;;;50.50;16.10;;;;;;;-5.17;67.38;99764.71;24510;1359;3026680;-71
2021/12/27 02:46:07;;;;;;;43.70;14.70;;;;;;;-5.16;67.53;99767.46;24483;1357;3067895;-70
2021/12/27 02:48:41;;;;;;;54.00;17.00;;;;;;;-5.26;67.48;99764.14;24506;1358;3049337;-70
2021/12/27 02:51:10;;;;;;;;;;;;;;;-5.32;68.25;99765.12;24540;1359;3052251;-72
2021/12/27 02:53:39;;;;;;;32.00;10.00;;;;;;;-5.46;68.48;99765.84;24562;1349;3026564;-71
2021/12/27 02:56:09;;;;;;;33.90;12.10;;;;;;;-5.61;68.94;99762.28;24549;1352;3048649;-70
2021/12/27 02:58:38;;;;;;;36.80;12.60;;;;;;;-5.66;69.00;99764.81;24536;1358;3025971;-68
2021/12/27 03:01:21;;;;;;;35.50;12.60;;;;;;;-5.75;69.48;99768.13;24523;1358;3027480;-71
2021/12/27 03:03:52;;;;;;;41.70;13.80;;;;;;;-5.77;69.45;99777.15;24474;1348;3055311;-69
2021/12/27 03:06:21;;;;;;;43.20;14.10;;;;;;;-5.80;69.81;99780.88;24507;1358;3025400;-71
2021/12/27 03:08:51;;;;;;;45.20;15.20;;;;;;;-5.80;69.71;99779.02;24510;1355;3025250;-69
2021/12/27 03:11:20;;;;;;;48.30;15.50;;;;;;;-5.85;69.75;99781.84;24491;1353;3026028;-70
2021/12/27 03:13:51;;;;;;;37.10;13.00;;;;;;;-5.91;70.09;99787.58;24486;1355;3027234;-70
2021/12/27 03:16:21;;;;;;;35.90;14.20;;;;;;;-5.84;70.40;99791.57;24521;1357;3026793;-71
2021/12/27 03:18:53;;;;;;;32.20;11.10;;;;;;;-5.87;70.16;99795.30;24521;1355;3026859;-68
2021/12/27 03:21:23;;;;;;;34.50;11.20;;;;;;;-5.83;70.32;99791.25;24496;1355;3026654;-70
2021/12/27 03:23:52;;;;;;;26.50;10.40;;;;;;;-5.82;69.64;99789.21;24468;1355;3026327;-69
2021/12/27 03:26:21;;;;;;;35.30;12.20;;;;;;;-5.89;70.17;99790.67;24504;1355;3052725;-69
2021/12/27 03:28:49;;;;;;;33.80;12.00;;;;;;;-5.86;70.27;99789.00;24483;1360;3026536;-70
2021/12/27 03:31:23;;;;;;;32.10;12.10;;;;;;;-5.74;69.98;99794.25;24526;1358;3049412;-71
2021/12/27 03:33:55;;;;;;;32.30;13.00;;;;;;;-5.59;69.24;99793.55;24508;1352;3026183;-71
2021/12/27 03:36:24;;;;;;;25.20;11.70;;;;;;;-5.50;68.69;99795.00;24521;1355;3025874;-71
2021/12/27 03:38:53;;;;;;;32.00;12.70;;;;;;;-5.56;69.02;99795.80;24502;1352;3026348;-71
2021/12/27 03:41:23;;;;;;;27.40;12.90;;;;;;;-5.65;69.58;99795.37;24504;1352;3053852;-70
2021/12/27 03:43:52;;;;;;;34.70;13.30;;;;;;;-5.72;70.09;99800.41;24553;1358;3026383;-70
2021/12/27 03:46:22;;;;;;;35.40;14.10;;;;;;;-5.71;69.79;99802.64;24524;1355;3026440;-71
2021/12/27 03:48:51;;;;;;;31.40;13.20;;;;;;;-5.79;70.27;99798.80;24504;1355;3050421;-70
2021/12/27 03:51:20;;;;;;;33.00;12.70;;;;;;;-5.81;70.28;99801.00;24484;1355;3026312;-71
2021/12/27 03:53:49;;;;;;;30.80;12.20;;;;;;;-5.91;70.46;99806.18;24502;1355;3050747;-69
2021/12/27 03:56:22;;;;;;;27.70;13.00;;;;;;;-5.95;70.76;99807.15;24562;1355;3026274;-69
2021/12/27 03:59:08;;;;;;;29.40;11.80;;;;;;;-5.96;70.65;99805.77;24511;1352;3066557;-70
2021/12/27 04:01:37;;;;;;;41.60;15.30;;;;;;;-6.00;70.87;99810.02;24491;1352;3050983;-71
2021/12/27 04:04:07;;;;;;;35.60;14.80;;;;;;;-6.03;70.76;99816.97;24517;1352;3027146;-70
2021/12/27 04:06:36;;;;;;;29.80;13.40;;;;;;;-6.09;71.36;99816.73;24504;1358;3026180;-69
2021/12/27 04:09:05;;;;;;;31.40;13.50;;;;;;;-6.11;71.42;99818.59;24513;1352;3027417;-72
2021/12/27 04:11:33;;;;;;;29.30;11.90;;;;;;;-6.12;71.53;99818.90;24509;1352;3053838;-70
2021/12/27 04:14:03;;;;;;;28.70;10.20;;;;;;;-6.16;71.60;99826.04;24513;1352;3026759;-71
2021/12/27 04:16:34;;;;;;;25.50;8.60;;;;;;;-6.21;71.77;99827.67;24548;1352;3026395;-69
2021/12/27 04:19:03;;;;;;;28.70;11.80;;;;;;;-6.17;71.61;99831.13;24474;1352;3026689;-70
2021/12/27 04:21:32;;;;;;;39.70;14.40;;;;;;;-6.18;71.86;99830.77;24523;1352;3052894;-70
2021/12/27 04:24:01;;;;;;;44.40;16.40;;;;;;;-6.19;71.69;99834.86;24520;1352;3027513;-68
2021/12/27 04:26:30;;;;;;;43.60;16.60;;;;;;;-6.18;71.76;99834.70;24504;1352;3054432;-68
2021/12/27 04:28:59;;;;;;;51.00;16.90;;;;;;;-6.16;71.67;99840.52;24532;1358;3027184;-70
2021/12/27 04:31:28;;;;;;;46.90;15.60;;;;;;;-6.15;71.94;99849.92;24501;1352;3047233;-70
2021/12/27 04:33:57;;;;;;;50.10;16.10;;;;;;;-6.08;71.48;99847.63;24509;1352;3025689;-69
2021/12/27 04:36:26;;;;;;;41.10;16.20;;;;;;;-5.97;71.34;99847.24;24490;1358;3067962;-71
2021/12/27 04:38:55;;;;;;;43.10;16.00;;;;;;;-5.90;70.57;99847.30;24517;1352;3026888;-71
2021/12/27 04:41:24;;;;;;;41.90;16.40;;;;;;;-5.81;70.35;99849.96;24530;1355;3054012;-67
2021/12/27 04:43:53;;;;;;;47.50;17.20;;;;;;;-5.79;70.44;99850.33;24503;1352;3026337;-71
2021/12/27 04:46:21;;;;;;;45.80;18.00;;;;;;;-5.81;70.40;99853.73;24521;1352;3050739;-71
2021/12/27 04:48:52;;;;;;;46.60;17.40;;;;;;;-5.77;69.67;99847.79;24566;1352;3027144;-71
2021/12/27 04:51:22;;;;;;;37.20;16.40;;;;;;;-5.77;70.29;99851.21;24538;1352;3051525;-69
2021/12/27 04:53:51;;;;;;;41.50;15.10;;;;;;;-5.76;70.48;99852.77;24546;1355;3026089;-71
2021/12/27 04:56:20;;;;;;;40.60;15.10;;;;;;;-5.63;69.93;99854.44;24502;1352;3055644;-69
2021/12/27 04:58:49;;;;;;;37.40;15.60;;;;;;;-5.68;69.65;99860.69;24541;1355;3026180;-70
2021/12/27 05:01:18;;;;;;;38.40;16.70;;;;;;;-5.67;69.78;99860.89;24496;1352;3056231;-68
2021/12/27 05:03:47;;;;;;;32.00;14.30;;;;;;;-5.74;69.95;99859.79;24518;1356;3026683;-68
2021/12/27 05:06:17;;;;;;;37.90;14.60;;;;;;;-5.71;69.66;99865.61;24499;1352;3052790;-70
2021/12/27 05:08:48;;;;;;;38.20;14.20;;;;;;;-5.68;69.97;99866.67;24517;1357;3026296;-72
2021/12/27 05:11:17;;;;;;;30.10;13.00;;;;;;;-5.69;69.74;99865.64;24529;1356;3028618;-68
2021/12/27 05:13:46;;;;;;;31.20;13.90;;;;;;;-5.71;69.56;99872.10;24511;1352;3029120;-68
2021/12/27 05:16:35;;;;;;;28.30;11.30;;;;;;;-5.75;69.58;99874.09;24467;1358;3053801;-69
2021/12/27 05:19:04;;;;;;;22.60;10.80;;;;;;;-5.73;69.94;99876.69;24493;1356;3026817;-69
2021/12/27 05:21:33;;;;;;;33.90;12.60;;;;;;;-5.76;69.91;99883.30;24503;1352;3054192;-67
2021/12/27 05:24:02;;;;;;;32.10;12.40;;;;;;;-5.81;69.88;99890.23;24514;1348;3026608;-71
2021/12/27 05:26:31;;;;;;;31.10;13.60;;;;;;;-5.89;70.35;99890.65;24521;1352;3048139;-70
2021/12/27 05:29:00;;;;;;;29.60;13.70;;;;;;;-5.95;70.54;99893.98;24531;1348;3025820;-70
2021/12/27 05:31:29;;;;;;;39.00;13.40;;;;;;;-5.89;70.54;99894.58;24502;1358;3069665;-71
2021/12/27 05:33:58;;;;;;;30.80;13.40;;;;;;;-5.89;69.84;99892.70;24521;1352;3026543;-71
2021/12/27 05:36:27;;;;;;;30.30;13.30;;;;;;;-5.92;70.57;99898.97;24534;1359;3051851;-70
2021/12/27 05:38:56;;;;;;;34.30;12.80;;;;;;;-5.92;70.71;99902.73;24539;1355;3026709;-70
2021/12/27 05:41:25;;;;;;;29.90;12.30;;;;;;;-5.80;69.85;99907.66;24518;1358;3053927;-68
2021/12/27 05:43:54;;;;;;;29.40;12.20;;;;;;;-5.80;69.89;99917.05;24544;1356;3026883;-71
2021/12/27 05:46:23;;;;;;;27.80;12.30;;;;;;;-5.81;70.05;99919.09;24497;1352;3049445;-72
2021/12/27 05:48:52;;;;;;;38.00;14.30;;;;;;;-5.73;70.01;99922.93;24504;1352;3026115;-69
2021/12/27 05:51:21;;;;;;;37.60;16.80;;;;;;;-5.75;70.02;99929.91;24525;1358;3058666;-71
2021/12/27 05:53:50;;;;;;;33.40;13.10;;;;;;;-5.68;69.89;99929.30;24527;1356;3026446;-71
2021/12/27 05:56:19;;;;;;;29.70;14.10;;;;;;;-5.52;69.49;99931.56;24516;1355;3051387;-70
2021/12/27 05:58:48;;;;;;;39.90;15.30;;;;;;;-5.40;69.28;99928.96;24510;1352;3026973;-70
2021/12/27 06:01:17;;;;;;;28.50;13.70;;;;;;;-5.32;69.09;99931.11;24511;1352;3026410;-71
2021/12/27 06:03:46;;;;;;;38.70;15.60;;;;;;;-5.34;68.67;99935.34;24533;1355;3052919;-72
2021/12/27 06:06:15;;;;;;;37.10;15.20;;;;;;;-5.38;68.48;99936.16;24546;1356;3026346;-70
2021/12/27 06:08:44;;;;;;;37.70;16.20;;;;;;;-5.44;68.88;99944.95;24519;1352;3054738;-67
2021/12/27 06:11:13;;;;;;;37.00;17.00;;;;;;;-5.50;68.87;99950.86;24528;1352;3027758;-69
2021/12/27 06:13:43;;;;;;;46.20;17.20;;;;;;;-5.60;69.48;99953.66;24516;1352;3048656;-71
2021/12/27 06:16:12;;;;;;;39.80;16.40;;;;;;;-5.59;70.02;99958.11;24497;1356;3026311;-71
2021/12/27 06:18:42;;;;;;;39.80;17.10;;;;;;;-5.52;69.16;99960.24;24495;1352;3069267;-72
2021/12/27 06:21:11;;;;;;;44.90;17.50;;;;;;;-5.49;69.25;99966.42;24494;1352;3026610;-70
2021/12/27 06:23:41;;;;;;;39.80;17.60;;;;;;;-5.61;69.27;99967.96;24510;1359;3049201;-71
2021/12/27 06:26:10;;;;;;;42.10;16.70;;;;;;;-5.51;69.41;99972.02;24515;1358;3026052;-71
2021/12/27 06:28:39;;;;;;;42.80;18.70;;;;;;;-5.41;69.22;99977.95;24502;1355;3026441;-71
2021/12/27 06:31:08;;;;;;;59.30;24.90;;;;;;;-5.39;69.12;99978.14;24519;1355;3051772;-73
2021/12/27 06:33:37;;;;;;;64.90;27.10;;;;;;;-5.43;69.08;99983.06;24485;1352;3026549;-72
2021/12/27 06:36:06;;;;;;;67.70;26.60;;;;;;;-5.27;69.13;99984.45;24540;1355;3053748;-70
2021/12/27 06:38:36;;;;;;;65.30;28.50;;;;;;;-5.05;68.50;99980.59;24523;1353;3026627;-71
2021/12/27 06:41:04;;;;;;;77.40;32.00;;;;;;;-5.02;68.30;99978.23;24509;1356;3026908;-73
2021/12/27 06:43:34;;;;;;;78.30;33.20;;;;;;;-5.09;67.75;99978.67;24555;1352;3054915;-70
2021/12/27 06:46:02;;;;;;;96.00;39.30;;;;;;;-4.92;66.74;99975.09;24505;1352;3026323;-69
2021/12/27 06:48:31;;;;;;;121.60;50.00;;;;;;;-4.92;65.69;99978.17;24528;1356;3051771;-72
2021/12/27 06:51:00;;;;;;;118.30;48.20;;;;;;;-4.87;64.57;99984.20;24549;1358;3026876;-71
2021/12/27 06:53:30;;;;;;;138.80;53.10;;;;;;;-4.91;63.76;99985.19;24509;1352;3058238;-68
2021/12/27 06:56:00;;;;;;;129.00;48.40;;;;;;;-4.86;64.05;99984.39;24500;1352;3026958;-71
2021/12/27 06:58:29;;;;;;;125.00;46.80;;;;;;;-4.84;64.75;99985.27;24531;1359;3026626;-71
2021/12/27 07:00:58;;;;;;;117.40;47.20;;;;;;;-4.94;65.07;99991.66;24520;1359;3027175;-70
2021/12/27 07:03:27;;;;;;;107.50;43.80;;;;;;;-4.98;66.27;99990.08;24489;1352;3051894;-71
2021/12/27 07:05:56;;;;;;;103.10;41.90;;;;;;;-4.97;67.11;99994.70;24523;1357;3025553;-70
2021/12/27 07:08:24;;;;;;;94.80;39.00;;;;;;;-4.91;67.06;99992.20;24529;1359;3055394;-71
2021/12/27 07:10:54;;;;;;;97.60;41.00;;;;;;;-5.07;67.58;99996.98;24517;1352;3026766;-73
2021/12/27 07:13:22;;;;;;;96.10;37.80;;;;;;;-5.08;68.10;100004.30;24513;1352;3051663;-72
2021/12/27 07:15:51;;;;;;;95.40;38.60;;;;;;;-5.03;68.09;100006.77;24508;1352;3029104;-72
2021/12/27 07:18:22;;;;;;;100.00;39.20;;;;;;;-4.90;67.60;99993.73;24516;1352;3051647;-69
2021/12/27 07:20:52;;;;;;;100.00;42.00;;;;;;;-4.87;67.10;99986.60;24531;1352;3026326;-69
2021/12/27 07:23:22;;;;;;;112.80;42.50;;;;;;;-4.80;67.37;99988.04;24543;1352;3025988;-71
2021/12/27 07:25:51;;;;;;;92.80;39.10;;;;;;;-4.74;67.08;99989.45;24511;1354;3027503;-71
2021/12/27 07:28:20;;;;;;;99.40;40.00;;;;;;;-4.62;66.38;99989.05;24509;1356;3026843;-70
2021/12/27 07:30:50;;;;;;;94.80;39.80;;;;;;;-4.49;66.14;99986.62;24537;1354;3026571;-73
2021/12/27 07:33:19;;;;;;;102.40;39.70;;;;;;;-4.57;65.68;99982.10;24514;1357;3026614;-74
2021/12/27 07:35:48;;;;;;;104.60;40.90;;;;;;;-4.56;66.11;99983.14;24515;1352;3052756;-68
2021/12/27 07:38:17;;;;;;;107.20;42.50;;;;;;;-4.47;66.14;99985.27;24525;1352;3026921;-69
2021/12/27 07:40:46;;;;;;;116.40;44.10;;;;;;;-4.31;65.52;99987.11;24470;1358;3047939;-69
2021/12/27 07:43:15;;;;;;;112.50;45.00;;;;;;;-4.24;64.84;99987.00;24476;1354;3026897;-69
2021/12/27 07:45:44;;;;;;;109.10;43.10;;;;;;;-4.27;65.15;99992.62;24507;1358;3058311;-71
2021/12/27 07:48:14;;;;;;;104.70;43.40;;;;;;;-4.29;64.97;99995.00;24492;1359;3028814;-72
2021/12/27 07:50:43;;;;;;;99.30;39.70;;;;;;;-4.20;65.12;100001.23;24572;1355;3026149;-71
2021/12/27 07:53:12;;;;;;;101.10;39.10;;;;;;;-4.14;65.05;100003.33;24472;1355;3059391;-70
2021/12/27 07:55:41;;;;;;;111.60;42.50;;;;;;;-4.07;64.81;100001.33;24550;1352;3026575;-71
2021/12/27 07:58:10;;;;;;;103.30;40.40;;;;;;;-4.02;64.70;100000.52;24534;1358;3053806;-72
2021/12/27 08:00:39;;;;;;;110.40;40.00;;;;;;;-3.93;64.67;100005.02;24531;1352;3026329;-72
2021/12/27 08:03:08;;;;;;;98.80;38.90;;;;;;;-3.91;64.42;100002.80;24523;1352;3050250;-71
2021/12/27 08:05:37;;;;;;;93.00;38.30;;;;;;;-3.92;64.18;100001.95;24546;1352;3026133;-72
2021/12/27 08:08:06;;;;;;;103.60;39.30;;;;;;;-3.84;64.25;100003.36;24507;1356;3026522;-73
2021/12/27 08:10:36;;;;;;;115.10;42.90;;;;;;;-3.77;63.47;100007.00;24573;1359;3055781;-73
2021/12/27 08:13:05;;;;;;;106.70;39.10;;;;;;;-3.77;63.37;100002.91;24504;1353;3027295;-71
2021/12/27 08:15:33;;;;;;;122.60;42.00;;;;;;;-3.74;63.47;100000.52;24496;1353;3048229;-72
2021/12/27 08:18:02;;;;;;;112.80;42.40;;;;;;;-3.78;63.31;99990.05;24513;1352;3029344;-73
2021/12/27 08:20:31;;;;;;;117.30;39.70;;;;;;;-3.65;63.38;99990.46;24521;1352;3069481;-72
2021/12/27 08:23:00;;;;;;;91.50;37.10;;;;;;;-3.69;63.00;99986.52;24495;1352;3026777;-73
2021/12/27 08:25:29;;;;;;;98.90;38.10;;;;;;;-3.60;62.75;99985.53;24504;1355;3053080;-69
2021/12/27 08:27:58;;;;;;;95.40;37.30;;;;;;;-3.53;62.59;99985.05;24509;1352;3026430;-71
2021/12/27 08:30:27;;;;;;;107.40;38.70;;;;;;;-3.49;62.62;99987.64;24503;1352;3055679;-71
2021/12/27 08:32:58;;;;;;;88.90;35.90;;;;;;;-3.42;62.26;99977.57;24483;1355;3026475;-74
2021/12/27 08:35:27;;;;;;;100.40;38.30;;;;;;;-3.37;62.21;99975.36;24498;1359;3026957;-70
2021/12/27 08:37:56;;;;;;;91.20;39.10;;;;;;;-3.37;62.07;99977.93;24525;1358;3026433;-70
2021/12/27 08:40:25;;;;;;;91.20;36.60;;;;;;;-3.37;61.70;99977.08;24520;1359;3053309;-70
2021/12/27 08:42:58;;;;;;;88.60;36.30;;;;;;;-3.34;61.47;99981.55;24537;1357;3026453;-70
2021/12/27 08:45:27;;;;;;;79.40;33.70;;;;;;;-3.23;61.53;99978.15;24527;1352;3026502;-73
2021/12/27 08:47:56;;;;;;;90.60;38.10;;;;;;;-3.33;61.19;99980.01;24517;1355;3027247;-71
2021/12/27 08:50:25;;;;;;;100.00;38.80;;;;;;;-3.21;61.10;99982.96;24542;1352;3067592;-73
2021/12/27 08:52:55;;;;;;;97.10;36.70;;;;;;;-3.12;60.95;99984.70;24498;1352;3028789;-72
2021/12/27 08:55:24;;;;;;;99.60;41.60;;;;;;;-3.16;61.02;99983.51;24515;1352;3051514;-72
2021/12/27 08:57:52;;;;;;;93.60;40.30;;;;;;;-3.14;61.18;99987.96;24527;1355;3026667;-73
2021/12/27 09:00:21;;;;;;;96.00;41.40;;;;;;;-3.11;61.43;99986.44;24490;1355;3052716;-72
2021/12/27 09:02:51;;;;;;;108.90;46.50;;;;;;;-3.27;62.05;99984.14;24489;1355;3027799;-72
2021/12/27 09:05:20;;;;;;;118.40;46.30;;;;;;;-3.27;61.93;99981.40;24523;1355;3028446;-74
2021/12/27 09:07:49;;;;;;;164.10;59.20;;;;;;;-3.22;62.02;99982.96;24506;1352;3052287;-74
2021/12/27 09:10:18;;;;;;;154.10;56.30;;;;;;;-3.24;61.74;99982.61;24525;1352;3026620;-73
2021/12/27 09:12:50;;;;;;;172.00;62.30;;;;;;;-3.25;61.32;99984.67;24503;1358;3051454;-72
2021/12/27 09:15:19;;;;;;;151.40;55.80;;;;;;;-3.31;61.69;99989.95;24555;1352;3026613;-73
2021/12/27 09:17:48;;;;;;;125.20;49.90;;;;;;;-3.18;61.37;99995.65;24500;1356;3055238;-73
2021/12/27 09:20:16;;;;;;;118.60;43.60;;;;;;;-3.09;60.42;99995.69;24491;1356;3026723;-73
2021/12/27 09:22:46;;;;;;;98.00;40.00;;;;;;;-3.06;60.03;99992.27;24495;1352;3053576;-71
2021/12/27 09:25:15;;;;;;;90.60;39.20;;;;;;;-2.96;59.36;99994.52;24527;1359;3026438;-72
2021/12/27 09:27:51;;;;;;;112.70;43.70;;;;;;;-2.96;59.67;99994.36;24511;1352;3051718;-74
2021/12/27 09:30:21;;;;;;;107.20;41.90;;;;;;;-2.96;59.39;99990.42;24494;1356;3027568;-73
2021/12/27 09:32:50;;;;;;;84.90;35.40;;;;;;;-2.94;59.58;99986.48;24503;1361;3026432;-73
2021/12/27 09:35:19;;;;;;;73.80;32.50;;;;;;;-2.86;58.97;99987.88;24523;1352;3054468;-73
2021/12/27 09:37:48;;;;;;;76.00;32.60;;;;;;;-2.79;58.60;99992.17;24540;1352;3026780;-75
2021/12/27 09:40:18;;;;;;;87.20;35.00;;;;;;;-2.72;58.05;99993.05;24498;1359;3050884;-73
2021/12/27 09:42:47;;;;;;;99.40;38.50;;;;;;;-2.69;58.31;99990.99;24511;1352;3027097;-73
2021/12/27 09:45:16;;;;;;;99.80;42.70;;;;;;;-2.68;58.26;99987.39;24494;1352;3070587;-73
2021/12/27 09:47:47;;;;;;;93.70;37.50;;;;;;;-2.74;58.01;99990.30;24540;1352;3026570;-74
2021/12/27 09:50:23;;;;;;;86.00;35.30;;;;;;;-2.71;57.80;99988.08;24524;1359;3049755;-73
2021/12/27 09:52:52;;;;;;;76.70;35.10;;;;;;;-2.65;57.70;99984.15;24565;1352;3067687;-74
2021/12/27 09:55:20;;;;;;;78.90;35.60;;;;;;;-2.57;57.73;99986.89;24507;1355;3026523;-73
2021/12/27 09:57:49;;;;;;;71.30;29.80;;;;;;;-2.48;57.73;99983.13;24505;1352;3049273;-75
2021/12/27 10:00:23;;;;;;;72.10;32.10;;;;;;;-2.48;57.10;99988.45;24477;1359;3071091;-74
2021/12/27 10:02:53;;;;;;;67.20;29.80;;;;;;;-2.61;57.34;99993.73;24534;1352;3026734;-73
2021/12/27 10:05:23;;;;;;;82.60;35.30;;;;;;;-2.66;57.39;99993.23;24512;1352;3050675;-75
2021/12/27 10:08:01;;;;;;;81.70;33.50;;;;;;;-2.57;57.72;99995.48;24522;1358;3071809;-75
2021/12/27 10:10:31;;;;;;;79.90;33.90;;;;;;;-2.45;57.31;99994.63;24550;1352;3026483;-75
2021/12/27 10:13:06;;;;;;;82.70;37.90;;;;;;;-2.57;57.44;99999.06;24557;1355;3027095;-74
2021/12/27 10:15:53;;;;;;;92.90;39.80;;;;;;;-2.68;57.54;100006.08;24497;1358;3054625;-75
2021/12/27 10:18:23;;;;;;;102.30;43.30;;;;;;;-2.84;57.63;100004.50;24514;1353;3026488;-73
2021/12/27 10:20:51;;;;;;;128.20;49.10;;;;;;;-2.90;58.01;100004.15;24549;1352;3026265;-74
2021/12/27 10:23:21;;;;;;;97.60;43.00;;;;;;;-2.98;58.75;100009.44;24504;1355;3053413;-74
2021/12/27 10:25:50;;;;;;;118.40;47.30;;;;;;;-2.96;58.51;100010.30;24500;1355;3026283;-74
2021/12/27 10:28:25;;;;;;;116.30;44.90;;;;;;;-3.00;58.20;100009.43;24511;1355;3052242;-73
2021/12/27 10:31:00;;;;;;;147.60;54.50;;;;;;;-3.15;58.33;100012.98;24476;1355;3053428;-72
2021/12/27 10:33:33;;;;;;;134.20;53.50;;;;;;;-3.22;58.12;100014.33;24554;1356;3056634;-74
2021/12/27 10:36:14;;;;;;;105.40;46.00;;;;;;;-3.28;57.62;100012.05;24515;1359;3051316;-74
2021/12/27 10:38:43;;;;;;;113.30;49.10;;;;;;;-3.42;58.59;100013.55;24523;1352;3026828;-74
2021/12/27 10:41:12;;;;;;;113.20;46.20;;;;;;;-3.41;58.32;100016.98;24478;1361;3055761;-74
2021/12/27 10:43:42;;;;;;;106.80;45.20;;;;;;;-3.44;57.75;100021.93;24472;1349;3025926;-75
2021/12/27 10:46:18;;;;;;;117.60;48.60;;;;;;;-3.44;57.81;100019.87;24505;1352;3026538;-74
2021/12/27 10:48:55;;;;;;;111.60;47.30;;;;;;;-3.53;57.70;100017.60;24519;1352;3053416;-72
2021/12/27 10:51:24;;;;;;;90.20;39.20;;;;;;;-3.56;58.02;100013.98;24518;1355;3071152;-76
2021/12/27 10:53:55;;;;;;;96.20;40.00;;;;;;;-3.66;57.93;100019.06;24501;1352;3026474;-75
2021/12/27 10:56:25;;;;;;;83.00;35.60;;;;;;;-3.68;58.60;100018.19;24524;1355;3026509;-73
2021/12/27 10:58:59;;;;;;;68.60;31.70;;;;;;;-3.72;58.89;100018.85;24545;1352;3026234;-75
2021/12/27 11:01:30;;;;;;;60.20;27.60;;;;;;;-3.84;58.68;100017.58;24543;1352;3026897;-72
2021/12/27 11:04:00;;;;;;;60.10;27.30;;;;;;;-3.83;58.62;100019.13;24511;1352;3026555;-74
2021/12/27 11:06:30;;;;;;;54.50;26.80;;;;;;;-3.75;58.26;100011.81;24504;1356;3026603;-75
2021/12/27 11:09:01;;;;;;;57.80;26.10;;;;;;;-3.90;58.09;100012.91;24553;1356;3028499;-75
2021/12/27 11:11:30;;;;;;;56.30;25.90;;;;;;;-3.99;58.62;100004.80;24519;1352;3026538;-75
2021/12/27 11:13:59;;;;;;;62.20;27.10;;;;;;;-3.94;59.28;100000.21;24509;1352;3054749;-75
2021/12/27 11:16:30;;;;;;;70.30;29.90;;;;;;;-3.99;58.84;100000.86;24511;1355;3028047;-75